Randolph, Alabama
Current Conditions -  °F | °C
As of 4:53 AM on Friday 31 Oct 2014 (Local Time) from KEET Reporting Station
Clear Clear  
Wind Chill: 46°   Ceiling: Unl
Heat Index: 46°   Visibility: 10mi
Dew Point: 43°   Wind: 0mph
Humidity: 89%   Direction: NA
Pressure: 29.99"   Gusts: NA
Location:  32.9°N, 86.91°W
Report Text: KEET 310953Z AUTO 00000KT 10SM CLR 08/06 A2999 RMK AO2 SLP153 T00780061
Loading
Personal Weather Stations






























Interactive Weather Map
Tropical Storm Tracking
New forecast layout! Learn more

10-Day Weather Forecast

Advertisements
Track Severe Weather on mobile